createdAt,value
2017-10-10T00:02:56.647Z,10.87
2017-10-10T00:05:53.334Z,10.87
2017-10-10T00:08:49.922Z,10.87
2017-10-10T00:18:37.527Z,10.88
2017-10-10T00:38:09.182Z,10.59
2017-10-10T00:40:35.009Z,10.56
2017-10-10T00:43:24.423Z,10.49
2017-10-10T00:46:21.106Z,10.47
2017-10-10T00:49:17.726Z,10.46
2017-10-10T00:52:14.385Z,10.50
2017-10-10T00:55:11.277Z,10.44
2017-10-10T00:58:07.897Z,10.44
2017-10-10T01:01:12.969Z,10.41
2017-10-10T01:03:38.749Z,10.40
2017-10-10T01:06:27.993Z,10.43
2017-10-10T01:09:24.485Z,10.49
2017-10-10T01:12:21.227Z,10.57
2017-10-10T01:15:17.843Z,10.56
2017-10-10T01:18:15.256Z,10.54
2017-10-10T01:27:22.603Z,10.43
2017-10-10T01:30:11.253Z,10.44
2017-10-10T01:33:08.261Z,10.49
2017-10-10T01:36:05.010Z,10.51
2017-10-10T01:39:02.416Z,10.49
2017-10-10T01:41:58.984Z,10.52
2017-10-10T01:44:56.398Z,10.42
2017-10-10T01:47:53.232Z,10.41
2017-10-10T01:50:19.069Z,10.41
2017-10-10T01:53:08.183Z,10.37
2017-10-10T01:56:04.912Z,10.37
2017-10-10T01:59:01.684Z,10.30
2017-10-10T02:01:58.979Z,10.20
2017-10-10T02:04:56.442Z,10.18
2017-10-10T02:14:02.504Z,10.07
2017-10-10T02:16:52.115Z,10.08
2017-10-10T02:19:48.972Z,10.07
2017-10-10T02:35:36.949Z,10.05
2017-10-10T02:38:26.321Z,10.03
2017-10-10T02:41:23.653Z,10.09
2017-10-10T02:44:20.485Z,10.22
2017-10-10T02:57:01.604Z,10.40
2017-10-10T02:59:50.789Z,10.50
2017-10-10T03:02:47.701Z,10.43
2017-10-10T03:05:44.323Z,10.41
2017-10-10T03:08:40.926Z,10.36
2017-10-10T03:11:38.372Z,10.25
2017-10-10T03:14:34.894Z,10.20
2017-10-10T03:17:32.346Z,10.16
2017-10-10T03:36:38.979Z,9.95
2017-10-10T03:55:46.254Z,9.80
2017-10-10T03:58:42.889Z,9.90
2017-10-10T04:01:40.038Z,9.95
2017-10-10T04:04:20.901Z,9.96
2017-10-10T04:23:52.029Z,9.96
2017-10-10T04:26:17.863Z,10.06
2017-10-10T04:29:07.162Z,10.06
2017-10-10T04:48:14.428Z,10.15
2017-10-10T04:51:04.945Z,10.18
2017-10-10T04:54:02.394Z,10.21
2017-10-10T05:13:06.486Z,10.54
2017-10-10T05:16:03.236Z,10.57
2017-10-10T05:35:09.717Z,10.77
2017-10-10T05:54:17.795Z,10.90
2017-10-10T05:57:07.305Z,10.95
2017-10-10T06:00:03.996Z,10.92
2017-10-10T06:03:00.879Z,10.92
2017-10-10T06:05:57.438Z,10.93
2017-10-10T06:15:48.299Z,10.89
2017-10-10T06:18:37.354Z,10.84
2017-10-10T06:37:50.575Z,10.95
2017-10-10T06:40:39.938Z,10.97
2017-10-10T06:59:52.543Z,11.20
2017-10-10T07:19:29.393Z,11.45
2017-10-10T07:38:38.339Z,11.83
2017-10-10T07:41:35.829Z,11.83
2017-10-10T07:44:01.582Z,11.95
2017-10-10T07:46:50.832Z,12.06
2017-10-10T07:49:48.360Z,12.11
2017-10-10T07:52:45.434Z,12.12
2017-10-10T07:55:43.025Z,12.18
2017-10-10T07:58:39.966Z,12.13
2017-10-10T08:01:37.098Z,12.14
2017-10-10T08:04:34.055Z,12.17
2017-10-10T08:06:59.822Z,12.25
2017-10-10T08:09:50.468Z,12.23
2017-10-10T08:29:02.169Z,12.14
2017-10-10T08:31:51.092Z,12.24
2017-10-10T08:34:48.550Z,12.27
2017-10-10T08:37:46.490Z,12.29
2017-10-10T08:40:44.548Z,12.27
2017-10-10T08:43:42.308Z,12.32
2017-10-10T08:46:39.457Z,12.38
2017-10-10T08:49:36.586Z,12.44
2017-10-10T09:08:47.623Z,12.68
2017-10-10T09:11:44.675Z,12.83
2017-10-10T09:14:10.466Z,12.97
2017-10-10T09:16:59.954Z,13.07
2017-10-10T09:19:57.023Z,13.14
2017-10-10T09:22:54.249Z,13.30
2017-10-10T09:25:51.785Z,13.41
2017-10-10T09:28:49.774Z,13.37
2017-10-10T09:31:46.878Z,13.36
2017-10-10T09:37:34.483Z,13.24
2017-10-10T09:40:23.477Z,13.24
2017-10-10T09:43:21.250Z,13.16
2017-10-10T09:46:18.395Z,13.29
2017-10-10T09:49:15.499Z,13.54
2017-10-10T09:52:13.003Z,13.61
2017-10-10T09:55:09.878Z,13.80
2017-10-10T09:58:07.030Z,14.24
2017-10-10T10:17:24.198Z,14.33
2017-10-10T10:20:20.799Z,14.37
2017-10-10T10:22:46.611Z,14.44
2017-10-10T10:25:36.157Z,14.50
2017-10-10T10:28:33.553Z,14.54
2017-10-10T10:44:21.092Z,14.60
2017-10-10T11:03:58.389Z,14.38
2017-10-10T11:06:24.170Z,14.37
2017-10-10T11:25:55.441Z,13.76
2017-10-10T11:28:21.237Z,13.76
2017-10-10T11:31:10.565Z,13.77
2017-10-10T11:50:18.679Z,13.53
2017-10-10T11:53:08.244Z,13.47
2017-10-10T12:12:16.313Z,13.11
2017-10-10T12:31:46.938Z,13.20
2017-10-10T12:34:12.739Z,13.27
2017-10-10T12:37:01.411Z,13.25
2017-10-10T12:56:09.865Z,13.28
2017-10-10T13:15:41.081Z,13.34
2017-10-10T13:34:47.865Z,13.31
2017-10-10T13:37:45.277Z,13.34
2017-10-10T13:40:11.049Z,13.40
2017-10-10T13:59:42.609Z,13.63
2017-10-10T14:02:08.405Z,13.69
2017-10-10T14:04:57.937Z,13.72
2017-10-10T14:07:55.336Z,13.81
2017-10-10T14:26:59.248Z,14.03
2017-10-10T14:29:56.315Z,14.06
2017-10-10T14:32:53.810Z,14.15
2017-10-10T14:45:34.623Z,13.96
2017-10-10T14:48:23.788Z,13.97
2017-10-10T14:51:20.519Z,13.96
2017-10-10T14:54:17.247Z,13.97
2017-10-10T15:07:10.969Z,14.09
2017-10-10T15:10:00.323Z,14.11
2017-10-10T15:12:57.613Z,14.18
2017-10-10T15:15:54.227Z,14.28
2017-10-10T15:18:51.710Z,14.33
2017-10-10T15:21:48.309Z,14.30
2017-10-10T15:24:45.320Z,14.33
2017-10-10T15:27:42.711Z,14.31
2017-10-10T15:30:08.486Z,14.27
2017-10-10T15:49:38.981Z,14.23
2017-10-10T16:08:58.163Z,14.87
2017-10-10T16:14:44.912Z,14.33
2017-10-10T16:17:33.947Z,14.25
2017-10-10T16:20:30.483Z,14.11
2017-10-10T16:39:32.001Z,13.60
2017-10-10T16:58:39.762Z,13.49
2017-10-10T17:01:29.111Z,13.51
2017-10-10T17:20:37.464Z,13.39
2017-10-10T17:23:26.898Z,13.37
2017-10-10T17:26:23.657Z,13.30
2017-10-10T17:29:20.449Z,13.25
2017-10-10T17:32:17.736Z,13.19
2017-10-10T17:35:14.646Z,13.12
2017-10-10T17:44:21.042Z,13.05
2017-10-10T17:47:10.532Z,12.99
2017-10-10T17:50:08.059Z,13.00
2017-10-10T18:09:14.607Z,12.89
2017-10-10T18:12:12.021Z,12.85
2017-10-10T18:31:18.656Z,12.82
2017-10-10T18:34:15.864Z,12.76
2017-10-10T18:37:12.586Z,12.73
2017-10-10T18:49:52.550Z,12.73
2017-10-10T18:52:41.809Z,12.75
2017-10-10T19:11:49.033Z,12.84
2017-10-10T19:14:38.446Z,12.82
2017-10-10T19:33:46.933Z,12.77
2017-10-10T19:36:36.344Z,12.81
2017-10-10T19:39:33.189Z,12.81
2017-10-10T19:42:29.968Z,12.81
2017-10-10T19:55:14.140Z,12.80
2017-10-10T19:58:03.226Z,12.83
2017-10-10T20:01:00.598Z,12.80
2017-10-10T20:16:48.009Z,12.89
2017-10-10T20:19:36.838Z,12.98
2017-10-10T20:22:33.410Z,13.01
2017-10-10T20:25:29.981Z,13.01
2017-10-10T20:28:27.052Z,12.99
2017-10-10T20:38:16.295Z,12.97
2017-10-10T20:57:47.817Z,13.02
2017-10-10T21:00:13.658Z,13.02
2017-10-10T21:19:45.872Z,13.06
2017-10-10T21:38:49.925Z,13.06
2017-10-10T21:44:36.184Z,13.03
2017-10-10T21:47:25.561Z,13.00
2017-10-10T21:50:22.243Z,13.00
2017-10-10T21:53:18.769Z,12.97
2017-10-10T22:06:01.931Z,12.97
2017-10-10T22:08:51.518Z,13.01
2017-10-10T22:11:48.545Z,13.03
2017-10-10T22:14:45.705Z,13.00
2017-10-10T22:17:43.783Z,13.05
2017-10-10T22:20:40.702Z,13.08
2017-10-10T22:29:48.744Z,13.09
2017-10-10T22:49:24.677Z,12.99
2017-10-10T22:51:50.473Z,12.96
2017-10-10T23:11:25.692Z,12.85
2017-10-10T23:13:51.534Z,12.91
2017-10-10T23:16:41.405Z,12.94
2017-10-10T23:19:39.025Z,12.97
2017-10-10T23:22:35.657Z,13.02
2017-10-10T23:25:33.117Z,13.01
2017-10-10T23:28:30.586Z,13.04
2017-10-10T23:31:27.219Z,13.05
2017-10-10T23:37:14.058Z,12.99
2017-10-10T23:40:03.621Z,12.97
2017-10-10T23:43:00.474Z,12.97
2017-10-10T23:45:57.781Z,13.01
2017-10-10T23:58:39.234Z,13.01
